Time;durP1;ratioP1;P1;durP2;ratioP2;P2;SDS_P1;SDS_P2;PMS_P1;PMS_P2;Temp;Humidity;BMP_temperature;BMP_pressure;BME280_temperature;BME280_humidity;BME280_pressure;Samples;Min_cycle;Max_cycle;Signal;HPM_P1;HPM_P2
2021/01/26 00:00:36;;;;;;;14.77;8.30;;;7.40;63.80;;;;;;2111708;28;20682;-60
2021/01/26 00:01:57;;;;;;;12.57;8.10;;;7.40;64.50;;;;;;2113573;28;20411;-60
2021/01/26 00:03:18;;;;;;;14.15;9.02;;;7.40;63.70;;;;;;2116329;28;20031;-60
2021/01/26 00:04:40;;;;;;;12.13;8.00;;;7.40;63.60;;;;;;2113933;28;20023;-60
2021/01/26 00:06:01;;;;;;;13.57;8.65;;;7.40;63.70;;;;;;2114360;28;20032;-60
2021/01/26 00:07:22;;;;;;;13.70;8.13;;;7.40;63.60;;;;;;2111426;28;20536;-60
2021/01/26 00:08:43;;;;;;;12.18;8.02;;;7.50;63.70;;;;;;2104625;28;20357;-60
2021/01/26 00:10:06;;;;;;;13.40;8.68;;;7.50;63.70;;;;;;2110796;28;20031;-60
2021/01/26 00:11:27;;;;;;;12.00;8.23;;;7.50;63.70;;;;;;2113956;28;20034;-60
2021/01/26 00:12:48;;;;;;;15.00;8.43;;;7.50;63.70;;;;;;2115576;28;20034;-60
2021/01/26 00:14:09;;;;;;;13.65;8.35;;;7.50;63.70;;;;;;2110875;28;20024;-59
2021/01/26 00:15:30;;;;;;;15.18;7.88;;;7.50;63.70;;;;;;2114292;28;20038;-60
2021/01/26 00:16:51;;;;;;;10.77;7.88;;;7.50;63.70;;;;;;2112376;28;20107;-60
2021/01/26 00:18:12;;;;;;;11.77;8.23;;;7.50;63.70;;;;;;2111793;28;20038;-60
2021/01/26 00:19:33;;;;;;;14.52;8.43;;;7.50;63.70;;;;;;2103740;28;20384;-59
2021/01/26 00:20:54;;;;;;;15.05;8.90;;;7.50;63.70;;;;;;2110749;28;20027;-60
2021/01/26 00:22:15;;;;;;;14.82;8.43;;;7.50;63.80;;;;;;2111606;28;20111;-60
2021/01/26 00:23:36;;;;;;;11.20;8.02;;;7.50;63.80;;;;;;2118156;28;20480;-60
2021/01/26 00:24:57;;;;;;;12.77;7.90;;;7.50;63.70;;;;;;2113517;28;20074;-59
2021/01/26 00:26:18;;;;;;;12.50;7.28;;;7.50;63.70;;;;;;2114117;28;20058;-59
2021/01/26 00:27:39;;;;;;;13.48;8.43;;;7.50;63.60;;;;;;2104448;28;20398;-60
2021/01/26 00:29:00;;;;;;;12.02;8.00;;;7.50;63.70;;;;;;2116366;28;20054;-60
2021/01/26 00:30:28;;;;;;;14.50;8.38;;;7.50;63.70;;;;;;2115909;28;20112;-60
2021/01/26 00:31:49;;;;;;;13.10;7.65;;;7.50;63.70;;;;;;2112733;28;20031;-60
2021/01/26 00:33:20;;;;;;;12.65;8.25;;;7.50;63.70;;;;;;2112301;28;20055;-59
2021/01/26 00:34:41;;;;;;;14.45;8.30;;;7.50;63.80;;;;;;2112889;28;20023;-60
2021/01/26 00:36:02;;;;;;;14.52;8.75;;;7.50;63.70;;;;;;2113622;28;20032;-60
2021/01/26 00:37:23;;;;;;;11.50;8.07;;;7.50;63.70;;;;;;2109582;28;20050;-59
2021/01/26 00:38:44;;;;;;;13.20;8.00;;;7.50;63.80;;;;;;2113096;28;20497;-60
2021/01/26 00:40:06;;;;;;;11.43;7.72;;;7.50;63.80;;;;;;2116924;27;20043;-60
2021/01/26 00:41:27;;;;;;;12.32;8.40;;;7.50;63.80;;;;;;2108923;28;20570;-60
2021/01/26 00:42:48;;;;;;;11.38;7.68;;;7.50;63.70;;;;;;2113632;28;20019;-60
2021/01/26 00:44:09;;;;;;;11.80;7.80;;;7.50;63.80;;;;;;2109616;28;20028;-60
2021/01/26 00:45:30;;;;;;;9.95;7.68;;;7.50;63.80;;;;;;2112848;28;20104;-60
2021/01/26 00:46:51;;;;;;;15.38;8.98;;;7.50;63.80;;;;;;2114040;28;20012;-60
2021/01/26 00:48:12;;;;;;;16.92;8.10;;;7.50;63.90;;;;;;2112200;28;20028;-60
2021/01/26 00:49:32;;;;;;;13.45;8.07;;;7.50;63.90;;;;;;2107981;28;20090;-60
2021/01/26 00:50:53;;;;;;;13.95;8.27;;;7.50;64.00;;;;;;2112146;28;20028;-60
2021/01/26 00:52:14;;;;;;;13.50;7.97;;;7.50;64.00;;;;;;2109402;28;20032;-59
2021/01/26 00:53:35;;;;;;;13.52;7.80;;;7.50;64.00;;;;;;2113635;28;20032;-60
2021/01/26 00:54:56;;;;;;;10.40;6.90;;;7.50;64.00;;;;;;2114753;28;20361;-60
2021/01/26 00:56:17;;;;;;;13.00;7.95;;;7.50;64.00;;;;;;2110740;27;20043;-59
2021/01/26 00:57:39;;;;;;;12.63;7.78;;;7.50;64.00;;;;;;2115541;27;20023;-60
2021/01/26 00:58:59;;;;;;;11.98;8.20;;;7.50;64.00;;;;;;2118908;27;20061;-60
2021/01/26 01:00:29;;;;;;;10.45;7.68;;;7.50;64.00;;;;;;2117754;27;20036;-59
2021/01/26 01:01:50;;;;;;;14.27;8.15;;;7.60;64.20;;;;;;2114005;28;20067;-60
2021/01/26 01:03:11;;;;;;;12.77;7.97;;;7.50;64.10;;;;;;2113625;28;20347;-60
2021/01/26 01:04:32;;;;;;;12.98;7.78;;;7.50;64.00;;;;;;2115273;28;20065;-60
2021/01/26 01:05:53;;;;;;;13.10;7.82;;;7.50;64.00;;;;;;2116346;28;20032;-60
2021/01/26 01:07:15;;;;;;;11.35;7.55;;;7.50;64.00;;;;;;2115723;28;20438;-60
2021/01/26 01:08:36;;;;;;;12.73;8.13;;;7.60;64.10;;;;;;2105751;28;20024;-60
2021/01/26 01:09:57;;;;;;;12.80;7.32;;;7.50;64.00;;;;;;2111226;28;20434;-60
2021/01/26 01:11:18;;;;;;;12.93;7.28;;;7.60;64.10;;;;;;2114879;28;20028;-59
2021/01/26 01:12:39;;;;;;;10.93;7.25;;;7.60;64.00;;;;;;2114899;28;20059;-60
2021/01/26 01:14:00;;;;;;;10.65;7.35;;;7.60;64.00;;;;;;2119678;27;20034;-60
2021/01/26 01:15:22;;;;;;;11.70;7.00;;;7.60;64.00;;;;;;2115738;28;20035;-60
2021/01/26 01:16:43;;;;;;;10.20;7.15;;;7.60;64.10;;;;;;2112727;27;20115;-60
2021/01/26 01:18:06;;;;;;;13.15;6.40;;;7.60;64.10;;;;;;2108442;28;20340;-60
2021/01/26 01:19:26;;;;;;;10.25;7.18;;;7.60;64.30;;;;;;2113918;28;20517;-60
2021/01/26 01:20:47;;;;;;;10.07;6.10;;;7.60;64.30;;;;;;2111567;28;20028;-60
2021/01/26 01:22:08;;;;;;;10.65;7.07;;;7.60;64.30;;;;;;2113469;28;20028;-60
2021/01/26 01:23:29;;;;;;;9.48;6.47;;;7.60;64.30;;;;;;2111027;28;20093;-61
2021/01/26 01:24:50;;;;;;;11.45;6.90;;;7.60;64.40;;;;;;2115152;28;20027;-60
2021/01/26 01:26:11;;;;;;;9.35;7.03;;;7.60;64.40;;;;;;2109292;27;20111;-60
2021/01/26 01:27:32;;;;;;;16.58;8.13;;;7.60;64.60;;;;;;2113218;28;20038;-60
2021/01/26 01:28:53;;;;;;;8.48;7.38;;;7.60;64.60;;;;;;2116306;27;20438;-60
2021/01/26 01:30:17;;;;;;;11.77;7.10;;;7.60;64.60;;;;;;2114781;27;20142;-60
2021/01/26 01:31:38;;;;;;;10.77;7.03;;;7.60;64.60;;;;;;2115257;28;20052;-60
2021/01/26 01:33:00;;;;;;;12.70;7.45;;;7.50;64.60;;;;;;2118981;27;20032;-60
2021/01/26 01:34:21;;;;;;;12.50;7.30;;;7.50;64.50;;;;;;2112885;28;20079;-59
2021/01/26 01:35:42;;;;;;;11.80;7.57;;;7.60;64.70;;;;;;2114706;27;20123;-60
2021/01/26 01:37:03;;;;;;;11.10;5.80;;;7.50;64.60;;;;;;2110320;28;20036;-59
2021/01/26 01:38:24;;;;;;;13.90;7.30;;;7.50;64.50;;;;;;2101262;28;20104;-60
2021/01/26 01:39:45;;;;;;;11.43;7.18;;;7.50;65.30;;;;;;2110923;27;20019;-59
2021/01/26 01:41:06;;;;;;;10.30;6.78;;;7.50;64.50;;;;;;2114938;28;20035;-60
2021/01/26 01:42:26;;;;;;;11.15;6.53;;;7.50;64.60;;;;;;2111764;28;20035;-60
2021/01/26 01:43:50;;;;;;;12.85;6.65;;;7.50;64.60;;;;;;2115193;28;20031;-60
2021/01/26 01:45:12;;;;;;;11.23;6.63;;;7.50;64.60;;;;;;2111606;28;20743;-59
2021/01/26 01:46:38;;;;;;;10.85;7.13;;;7.50;64.60;;;;;;2115455;28;20033;-60
2021/01/26 01:48:13;;;;;;;10.70;6.53;;;7.50;64.70;;;;;;2110431;28;20115;-60
2021/01/26 01:49:40;;;;;;;10.70;6.57;;;7.50;64.90;;;;;;2111760;28;20028;-60
2021/01/26 01:51:08;;;;;;;13.85;6.55;;;7.50;64.70;;;;;;2115205;28;20073;-60
2021/01/26 01:52:34;;;;;;;9.95;5.90;;;7.50;64.70;;;;;;2115910;28;20123;-59
2021/01/26 01:54:05;;;;;;;9.02;6.60;;;7.50;64.70;;;;;;2114125;28;20027;-59
2021/01/26 01:55:27;;;;;;;;;;;7.50;64.70;;;;;;2118357;27;20411;-59
2021/01/26 01:57:05;;;;;;;10.32;5.50;;;7.50;64.90;;;;;;2106874;28;20298;-59
2021/01/26 01:58:30;;;;;;;9.10;6.18;;;7.50;64.40;;;;;;2110705;28;20103;-59
2021/01/26 01:59:56;;;;;;;11.32;5.57;;;7.50;64.50;;;;;;2114373;27;20128;-59
2021/01/26 02:01:19;;;;;;;9.32;5.63;;;7.50;64.50;;;;;;2115687;27;20031;-59
2021/01/26 02:02:55;;;;;;;10.77;5.85;;;7.50;64.60;;;;;;2118919;27;20067;-59
2021/01/26 02:04:19;;;;;;;12.27;5.93;;;7.40;64.70;;;;;;2111750;28;20016;-59
2021/01/26 02:05:41;;;;;;;7.90;5.75;;;7.50;64.70;;;;;;2114639;28;20092;-59
2021/01/26 02:07:04;;;;;;;9.43;5.85;;;7.50;64.70;;;;;;2114492;28;20039;-59
2021/01/26 02:08:35;;;;;;;10.32;5.65;;;7.50;64.70;;;;;;2113630;27;20062;-58
2021/01/26 02:09:56;;;;;;;8.70;5.22;;;7.50;64.80;;;;;;2114513;28;20354;-59
2021/01/26 02:11:18;;;;;;;7.00;5.05;;;7.50;64.80;;;;;;2113991;27;20027;-58
2021/01/26 02:12:39;;;;;;;11.15;5.70;;;7.50;64.80;;;;;;2112449;28;20030;-59
2021/01/26 02:14:00;;;;;;;8.85;5.50;;;7.50;64.90;;;;;;2114000;28;20020;-59
2021/01/26 02:15:21;;;;;;;13.60;5.93;;;7.50;65.00;;;;;;2113561;28;20075;-58
2021/01/26 02:16:50;;;;;;;11.68;5.70;;;7.50;65.10;;;;;;2112966;28;20038;-59
2021/01/26 02:18:25;;;;;;;9.95;5.18;;;7.50;65.10;;;;;;2114883;27;20070;-58
2021/01/26 02:20:07;;;;;;;9.75;6.15;;;7.50;65.10;;;;;;2114597;28;20023;-57
2021/01/26 02:21:55;;;;;;;8.82;5.80;;;7.50;65.10;;;;;;2109867;28;20030;-60
2021/01/26 02:23:54;;;;;;;7.35;4.97;;;7.50;65.00;;;;;;2113581;28;20061;-58
2021/01/26 02:25:38;;;;;;;7.57;5.20;;;7.50;65.20;;;;;;2112596;28;20027;-60
2021/01/26 02:27:18;;;;;;;8.43;5.03;;;7.50;64.90;;;;;;2114558;28;20034;-60
2021/01/26 02:28:52;;;;;;;7.70;4.85;;;7.50;64.90;;;;;;2113581;27;20092;-60
2021/01/26 02:30:34;;;;;;;7.15;5.55;;;7.60;64.80;;;;;;2114485;28;20028;-60
2021/01/26 02:32:07;;;;;;;9.00;5.70;;;7.60;64.90;;;;;;2114019;28;20024;-59
2021/01/26 02:33:48;;;;;;;7.65;5.40;;;7.60;65.00;;;;;;2109252;28;20085;-60
2021/01/26 02:35:18;;;;;;;6.32;4.55;;;7.60;64.90;;;;;;2110877;28;20066;-60
2021/01/26 02:37:27;;;;;;;10.38;5.53;;;7.60;65.00;;;;;;2114551;28;20166;-60
2021/01/26 02:39:06;;;;;;;8.70;5.00;;;7.60;65.60;;;;;;2112819;28;20011;-60
2021/01/26 02:41:00;;;;;;;7.60;5.23;;;7.60;65.40;;;;;;2118746;27;20035;-60
2021/01/26 02:42:52;;;;;;;9.52;5.05;;;7.60;65.40;;;;;;2114878;28;20035;-60
2021/01/26 02:44:35;;;;;;;13.48;5.82;;;7.60;65.40;;;;;;2112356;28;20540;-60
2021/01/26 02:46:14;;;;;;;8.25;4.75;;;7.60;65.70;;;;;;2116732;27;20408;-60
2021/01/26 02:48:12;;;;;;;9.38;5.53;;;7.60;65.40;;;;;;2114395;28;20502;-60
2021/01/26 02:50:00;;;;;;;7.50;4.45;;;7.50;65.80;;;;;;2110369;28;20100;-60
2021/01/26 02:51:48;;;;;;;7.85;5.05;;;7.50;65.80;;;;;;2114478;28;20462;-60
2021/01/26 02:53:50;;;;;;;13.10;4.90;;;7.50;65.80;;;;;;2111829;28;20369;-59
2021/01/26 02:55:22;;;;;;;7.03;5.53;;;7.50;65.60;;;;;;2112176;28;20043;-60
2021/01/26 02:56:51;;;;;;;7.35;4.90;;;7.50;65.40;;;;;;2113307;28;20015;-60
2021/01/26 02:58:21;;;;;;;11.77;4.78;;;7.50;65.30;;;;;;2114161;28;20083;-60
2021/01/26 02:59:48;;;;;;;11.10;4.63;;;7.50;65.50;;;;;;2109399;28;20027;-59
2021/01/26 03:01:11;;;;;;;8.25;4.88;;;7.50;65.50;;;;;;2115806;27;21999;-60
2021/01/26 03:02:44;;;;;;;9.70;4.72;;;7.50;65.40;;;;;;2111392;28;20153;-59
2021/01/26 03:04:16;;;;;;;10.52;4.45;;;7.50;65.50;;;;;;2110056;28;20051;-60
2021/01/26 03:05:57;;;;;;;9.77;4.72;;;7.50;65.30;;;;;;2113914;28;20038;-60
2021/01/26 03:07:21;;;;;;;9.73;4.70;;;7.50;65.40;;;;;;2113968;28;20096;-59
2021/01/26 03:09:15;;;;;;;7.78;4.13;;;7.50;65.30;;;;;;2111214;28;20020;-60
2021/01/26 03:10:48;;;;;;;8.18;4.30;;;7.50;65.40;;;;;;2108880;28;20031;-60
2021/01/26 03:12:23;;;;;;;7.50;4.28;;;7.50;65.40;;;;;;2106186;28;20032;-60
2021/01/26 03:13:51;;;;;;;6.65;3.90;;;7.50;65.40;;;;;;2110068;28;20024;-60
2021/01/26 03:15:22;;;;;;;8.65;4.30;;;7.50;65.30;;;;;;2109457;28;20126;-59
2021/01/26 03:16:44;;;;;;;11.32;4.22;;;7.50;65.20;;;;;;2110012;28;20022;-60
2021/01/26 03:18:10;;;;;;;6.15;3.90;;;7.50;65.10;;;;;;2111546;28;20038;-60
2021/01/26 03:19:35;;;;;;;8.57;4.53;;;7.50;65.10;;;;;;2114130;28;20023;-60
2021/01/26 03:21:01;;;;;;;7.72;3.67;;;7.60;65.20;;;;;;2114423;28;20053;-60
2021/01/26 03:22:26;;;;;;;8.32;4.45;;;7.60;65.20;;;;;;2114790;28;20173;-60
2021/01/26 03:23:54;;;;;;;10.55;4.38;;;7.50;65.20;;;;;;2113517;28;20071;-60
2021/01/26 03:25:18;;;;;;;7.20;3.72;;;7.60;65.40;;;;;;2113006;28;20028;-60
2021/01/26 03:26:40;;;;;;;7.97;4.00;;;7.50;65.30;;;;;;2107808;28;20131;-59
2021/01/26 03:28:05;;;;;;;5.07;3.67;;;7.60;65.30;;;;;;2110814;28;20034;-60
2021/01/26 03:29:29;;;;;;;7.68;4.03;;;7.60;65.30;;;;;;2108986;28;20027;-60
2021/01/26 03:30:54;;;;;;;5.68;3.80;;;7.60;65.50;;;;;;2112102;27;20028;-60
2021/01/26 03:32:23;;;;;;;7.80;4.10;;;7.60;65.50;;;;;;2113685;28;20016;-59
2021/01/26 03:33:51;;;;;;;11.02;4.45;;;7.60;65.70;;;;;;2114691;28;20096;-61
2021/01/26 03:35:12;;;;;;;8.48;4.38;;;7.60;65.90;;;;;;2111198;28;20061;-60
2021/01/26 03:36:35;;;;;;;8.85;4.65;;;7.60;65.90;;;;;;2109096;28;20407;-60
2021/01/26 03:38:09;;;;;;;7.15;4.80;;;7.60;65.90;;;;;;2114584;28;20646;-60
2021/01/26 03:39:30;;;;;;;10.38;4.32;;;7.60;66.20;;;;;;2111535;28;20028;-60
2021/01/26 03:40:52;;;;;;;8.38;4.63;;;7.60;65.90;;;;;;2114878;28;20020;-60
2021/01/26 03:42:13;;;;;;;10.35;4.85;;;7.60;65.90;;;;;;2112931;28;20063;-60
2021/01/26 03:43:34;;;;;;;9.30;5.00;;;7.60;66.00;;;;;;2115887;27;20028;-60
2021/01/26 03:44:55;;;;;;;11.23;5.15;;;7.60;66.10;;;;;;2113559;28;20059;-60
2021/01/26 03:46:43;;;;;;;9.88;5.13;;;7.60;66.10;;;;;;2115027;27;20043;-60
2021/01/26 03:48:35;;;;;;;6.47;4.50;;;7.60;66.30;;;;;;2110927;27;20024;-60
2021/01/26 03:50:12;;;;;;;11.05;5.45;;;7.60;66.20;;;;;;2113557;28;20112;-60
2021/01/26 03:51:59;;;;;;;7.70;5.00;;;7.60;66.30;;;;;;2110624;28;20532;-60
2021/01/26 03:53:58;;;;;;;5.15;4.22;;;7.60;66.30;;;;;;2116431;28;20039;-60
2021/01/26 03:55:31;;;;;;;8.15;4.63;;;7.50;66.30;;;;;;2112638;28;20020;-60
2021/01/26 03:57:16;;;;;;;10.45;5.75;;;7.60;66.30;;;;;;2115380;27;20027;-60
2021/01/26 03:58:58;;;;;;;8.43;5.05;;;7.60;66.40;;;;;;2114857;27;20034;-60
2021/01/26 04:00:42;;;;;;;8.30;5.00;;;7.50;66.10;;;;;;2108007;28;20020;-60
2021/01/26 04:02:35;;;;;;;7.68;5.05;;;7.60;66.10;;;;;;2096557;28;20446;-60
2021/01/26 04:04:04;;;;;;;7.45;4.68;;;7.50;66.20;;;;;;2111866;28;20081;-59
2021/01/26 04:05:53;;;;;;;9.43;4.55;;;7.50;65.80;;;;;;2113293;28;20031;-60
2021/01/26 04:07:33;;;;;;;8.75;5.63;;;7.50;66.20;;;;;;2112572;28;20512;-60
2021/01/26 04:09:03;;;;;;;9.15;5.35;;;7.50;66.00;;;;;;2112323;28;20043;-60
2021/01/26 04:10:33;;;;;;;8.20;4.80;;;7.50;66.00;;;;;;2113270;28;20039;-60
2021/01/26 04:12:10;;;;;;;8.75;4.80;;;7.50;66.00;;;;;;2112998;28;20066;-60
2021/01/26 04:13:39;;;;;;;7.90;4.80;;;7.50;66.20;;;;;;2107068;28;20126;-60
2021/01/26 04:15:09;;;;;;;7.85;4.43;;;7.50;66.10;;;;;;2114110;28;20038;-60
2021/01/26 04:16:36;;;;;;;8.57;4.78;;;7.50;66.10;;;;;;2109579;28;20066;-60
2021/01/26 04:17:57;;;;;;;10.95;5.63;;;7.50;66.20;;;;;;2109960;28;20050;-60
2021/01/26 04:19:26;;;;;;;10.50;4.45;;;7.50;66.10;;;;;;2113715;28;20074;-59
2021/01/26 04:20:49;;;;;;;10.75;4.60;;;7.50;66.30;;;;;;2114062;28;20035;-60
2021/01/26 04:22:12;;;;;;;10.13;4.97;;;7.60;66.20;;;;;;2112714;28;20035;-60
2021/01/26 04:23:33;;;;;;;11.85;4.80;;;7.50;66.20;;;;;;2117575;28;20130;-60
2021/01/26 04:24:54;;;;;;;8.05;4.20;;;7.50;66.10;;;;;;2111862;28;20119;-59
2021/01/26 04:26:18;;;;;;;5.63;4.30;;;7.50;66.20;;;;;;2108775;28;20059;-59
2021/01/26 04:27:39;;;;;;;10.15;5.22;;;7.50;66.20;;;;;;2110173;28;20031;-60
2021/01/26 04:28:59;;;;;;;8.40;4.78;;;7.60;66.30;;;;;;2118193;28;20063;-60
2021/01/26 04:30:21;;;;;;;5.90;4.30;;;7.50;66.20;;;;;;2113373;28;20020;-60
2021/01/26 04:31:42;;;;;;;6.88;4.22;;;7.50;66.20;;;;;;2110939;28;20038;-60
2021/01/26 04:33:09;;;;;;;9.10;4.32;;;7.50;66.20;;;;;;2113443;28;20036;-60
2021/01/26 04:34:30;;;;;;;7.63;3.83;;;7.60;66.30;;;;;;2112521;28;20028;-59
2021/01/26 04:35:51;;;;;;;3.80;3.50;;;7.50;66.20;;;;;;2116480;28;20030;-60
2021/01/26 04:37:12;;;;;;;5.97;3.90;;;7.50;66.30;;;;;;2115145;27;20050;-60
2021/01/26 04:38:33;;;;;;;9.10;4.25;;;7.60;66.40;;;;;;2118283;27;20023;-60
2021/01/26 04:39:54;;;;;;;7.60;4.20;;;7.60;66.40;;;;;;2119175;27;20076;-60
2021/01/26 04:41:33;;;;;;;6.15;3.83;;;7.60;66.40;;;;;;2111113;28;20370;-60
2021/01/26 04:43:10;;;;;;;6.65;4.30;;;7.60;66.40;;;;;;2114564;28;20792;-60
2021/01/26 04:44:40;;;;;;;4.80;3.58;;;7.60;66.40;;;;;;2114321;28;20035;-60
2021/01/26 04:46:08;;;;;;;8.30;4.43;;;7.60;66.30;;;;;;2117913;27;20032;-60
2021/01/26 04:47:37;;;;;;;10.05;3.92;;;7.60;66.20;;;;;;2110750;28;20048;-60
2021/01/26 04:49:35;;;;;;;11.93;4.60;;;7.60;66.20;;;;;;2111023;28;20106;-60
2021/01/26 04:51:00;;;;;;;7.45;3.42;;;7.60;66.40;;;;;;2115660;28;20036;-60
2021/01/26 04:52:55;;;;;;;6.90;3.85;;;7.60;66.30;;;;;;2117943;27;20027;-60
2021/01/26 04:54:42;;;;;;;8.05;4.03;;;7.60;66.50;;;;;;2115607;27;20032;-60
2021/01/26 04:56:32;;;;;;;13.65;4.63;;;7.60;66.40;;;;;;2111828;28;20023;-60
2021/01/26 04:58:11;;;;;;;5.60;3.60;;;7.60;66.30;;;;;;2114619;28;20103;-60
2021/01/26 04:59:35;;;;;;;8.82;3.70;;;7.60;66.40;;;;;;2112691;28;20062;-60
2021/01/26 05:01:13;;;;;;;8.38;3.97;;;7.60;66.20;;;;;;2113604;27;20446;-60
2021/01/26 05:02:34;;;;;;;6.50;3.70;;;7.60;66.40;;;;;;2099240;28;20119;-60
2021/01/26 05:04:01;;;;;;;6.47;3.70;;;7.60;66.30;;;;;;2107085;28;20032;-60
2021/01/26 05:05:25;;;;;;;9.23;4.03;;;7.60;66.40;;;;;;2109336;28;20031;-60
2021/01/26 05:06:51;;;;;;;7.03;4.25;;;7.60;66.40;;;;;;2111575;28;20118;-60
2021/01/26 05:08:23;;;;;;;8.32;4.00;;;7.60;66.60;;;;;;2112894;27;20042;-60
2021/01/26 05:09:55;;;;;;;8.70;4.40;;;7.60;66.70;;;;;;2112508;28;20343;-59
2021/01/26 05:11:27;;;;;;;10.30;4.10;;;7.60;66.60;;;;;;2114194;28;20028;-60
2021/01/26 05:12:56;;;;;;;7.38;4.30;;;7.60;66.70;;;;;;2113917;28;20124;-60
2021/01/26 05:14:25;;;;;;;7.80;4.10;;;7.60;66.80;;;;;;2112185;28;20024;-60
2021/01/26 05:15:50;;;;;;;8.48;4.35;;;7.60;66.70;;;;;;2118120;27;20035;-60
2021/01/26 05:17:20;;;;;;;8.77;4.82;;;7.60;66.70;;;;;;2111066;27;20032;-60
2021/01/26 05:18:50;;;;;;;9.48;4.82;;;7.70;66.80;;;;;;2110650;28;20030;-60
2021/01/26 05:20:15;;;;;;;8.45;4.05;;;7.70;66.90;;;;;;2113435;28;20502;-60
2021/01/26 05:22:02;;;;;;;6.68;4.32;;;7.70;66.70;;;;;;2114920;28;20027;-60
2021/01/26 05:23:31;;;;;;;8.63;4.43;;;7.70;66.80;;;;;;2115967;28;20015;-60
2021/01/26 05:24:58;;;;;;;8.18;4.05;;;7.70;66.60;;;;;;2114667;27;20028;-60
2021/01/26 05:26:19;;;;;;;7.97;4.60;;;7.70;66.50;;;;;;2115551;28;20081;-60
2021/01/26 05:27:40;;;;;;;5.70;3.85;;;7.70;66.40;;;;;;2110719;28;20413;-60
2021/01/26 05:29:01;;;;;;;6.95;3.97;;;7.70;66.40;;;;;;2112830;28;20066;-60
2021/01/26 05:30:28;;;;;;;7.95;3.88;;;7.70;66.30;;;;;;2114024;28;20624;-59
2021/01/26 05:31:56;;;;;;;7.22;4.18;;;7.70;66.40;;;;;;2111522;28;20024;-60
2021/01/26 05:33:17;;;;;;;8.20;4.45;;;7.70;66.40;;;;;;2113834;28;20020;-60
2021/01/26 05:34:41;;;;;;;5.28;4.07;;;7.70;66.40;;;;;;2113747;27;20035;-60
2021/01/26 05:36:03;;;;;;;10.27;4.40;;;7.70;66.40;;;;;;2118406;27;20030;-61
2021/01/26 05:37:24;;;;;;;5.00;3.78;;;7.70;66.40;;;;;;2114589;28;20359;-60
2021/01/26 05:38:50;;;;;;;5.57;3.90;;;7.70;66.40;;;;;;2110436;28;20183;-60
2021/01/26 05:40:28;;;;;;;8.05;4.43;;;7.70;66.50;;;;;;2113073;28;20413;-60
2021/01/26 05:41:49;;;;;;;8.60;4.70;;;7.70;66.50;;;;;;2113918;28;20040;-60
2021/01/26 05:43:15;;;;;;;7.22;4.18;;;7.70;66.50;;;;;;2107008;28;20424;-60
2021/01/26 05:44:36;;;;;;;8.20;4.75;;;7.60;66.40;;;;;;2114074;28;20411;-60
2021/01/26 05:46:01;;;;;;;8.93;4.80;;;7.60;66.40;;;;;;2114043;28;20046;-60
2021/01/26 05:47:30;;;;;;;8.88;4.68;;;7.60;66.60;;;;;;2109776;28;20027;-60
2021/01/26 05:48:51;;;;;;;6.70;4.47;;;7.60;66.60;;;;;;2114246;28;20050;-60
2021/01/26 05:50:24;;;;;;;13.57;5.63;;;7.60;66.70;;;;;;2109525;28;20151;-60
2021/01/26 05:51:45;;;;;;;7.68;4.88;;;7.60;66.90;;;;;;2111425;28;20125;-60
2021/01/26 05:53:31;;;;;;;6.25;4.70;;;7.60;66.70;;;;;;2112309;28;20039;-60
2021/01/26 05:54:53;;;;;;;8.73;4.75;;;7.60;67.20;;;;;;2110272;28;20119;-60
2021/01/26 05:56:15;;;;;;;10.77;4.88;;;7.60;66.80;;;;;;2108989;28;20595;-60
2021/01/26 05:57:37;;;;;;;9.07;4.80;;;7.60;67.00;;;;;;2109988;28;20039;-60
2021/01/26 05:59:26;;;;;;;9.23;5.20;;;7.60;66.90;;;;;;2120100;27;20031;-60
2021/01/26 06:00:56;;;;;;;8.55;4.75;;;7.60;67.30;;;;;;2112523;28;20462;-60
2021/01/26 06:02:22;;;;;;;8.18;5.05;;;7.60;67.00;;;;;;2116875;27;20473;-60
2021/01/26 06:03:43;;;;;;;9.10;4.90;;;7.60;67.00;;;;;;2111223;28;20043;-60
2021/01/26 06:05:10;;;;;;;8.27;5.15;;;7.60;66.90;;;;;;2111790;28;20520;-60
2021/01/26 06:06:31;;;;;;;10.52;4.88;;;7.50;67.10;;;;;;2114832;28;20028;-60
2021/01/26 06:08:13;;;;;;;10.25;4.90;;;7.60;67.10;;;;;;2111992;28;20514;-60
2021/01/26 06:09:40;;;;;;;11.30;5.00;;;7.50;67.40;;;;;;2115824;27;20042;-60
2021/01/26 06:11:15;;;;;;;8.60;4.93;;;7.60;67.30;;;;;;2115600;28;20118;-60
2021/01/26 06:12:51;;;;;;;7.95;4.57;;;7.50;67.40;;;;;;2114526;27;20058;-60
2021/01/26 06:14:14;;;;;;;9.52;4.63;;;7.50;67.40;;;;;;2113229;28;20115;-60
2021/01/26 06:15:38;;;;;;;14.15;4.93;;;7.50;67.00;;;;;;2116503;27;20035;-60
2021/01/26 06:17:11;;;;;;;10.40;5.03;;;7.50;66.90;;;;;;2113248;28;20118;-60
2021/01/26 06:18:32;;;;;;;7.97;5.18;;;7.50;67.00;;;;;;2109864;28;20038;-60
2021/01/26 06:20:23;;;;;;;11.32;5.53;;;7.50;66.90;;;;;;2110229;28;20039;-60
2021/01/26 06:21:49;;;;;;;9.32;4.47;;;7.50;67.10;;;;;;2111695;27;20023;-60
2021/01/26 06:23:14;;;;;;;10.15;5.47;;;7.50;66.90;;;;;;2115290;27;20417;-60
2021/01/26 06:24:37;;;;;;;11.02;5.63;;;7.50;66.90;;;;;;2114550;27;20090;-60
2021/01/26 06:26:01;;;;;;;7.53;5.70;;;7.50;67.10;;;;;;2114521;28;20027;-59
2021/01/26 06:27:39;;;;;;;11.25;5.43;;;7.50;67.10;;;;;;2114417;28;20031;-60
2021/01/26 06:29:19;;;;;;;9.57;5.40;;;7.50;67.20;;;;;;2119643;27;20593;-60
2021/01/26 06:31:09;;;;;;;10.18;5.55;;;7.50;67.30;;;;;;2115215;27;20044;-60
2021/01/26 06:32:59;;;;;;;10.70;6.18;;;7.50;67.30;;;;;;2113436;27;20035;-60
2021/01/26 06:34:23;;;;;;;;;;;7.50;67.40;;;;;;2111620;28;20036;-60
2021/01/26 06:36:10;;;;;;;8.98;4.68;;;7.50;67.40;;;;;;2112065;28;19904;-61
2021/01/26 06:37:34;;;;;;;9.35;5.10;;;7.50;67.10;;;;;;2113071;28;20084;-60
2021/01/26 06:39:12;;;;;;;8.18;4.32;;;7.50;66.90;;;;;;2118344;27;20080;-60
2021/01/26 06:40:53;;;;;;;10.68;4.30;;;7.60;67.20;;;;;;2110909;28;20103;-60
2021/01/26 06:42:47;;;;;;;9.80;4.57;;;7.50;67.20;;;;;;2111643;28;20036;-60
2021/01/26 06:44:35;;;;;;;5.38;3.72;;;7.50;67.30;;;;;;2109274;28;20031;-60
2021/01/26 06:46:17;;;;;;;8.38;4.22;;;7.50;67.20;;;;;;2113806;27;20034;-60
2021/01/26 06:47:47;;;;;;;5.22;3.47;;;7.50;67.30;;;;;;2108790;28;20042;-60
2021/01/26 06:49:24;;;;;;;7.68;4.25;;;7.50;67.00;;;;;;2103585;28;20433;-60
2021/01/26 06:51:08;;;;;;;10.00;4.35;;;7.50;66.90;;;;;;2117714;27;20027;-60
2021/01/26 06:53:04;;;;;;;5.65;3.60;;;7.50;67.30;;;;;;2110152;28;20144;-60
2021/01/26 06:54:39;;;;;;;10.63;4.45;;;7.50;67.20;;;;;;2091060;28;20028;-60
2021/01/26 06:56:40;;;;;;;10.30;5.50;;;7.40;67.20;;;;;;2113832;28;20024;-60
2021/01/26 06:58:19;;;;;;;8.32;5.35;;;7.40;67.60;;;;;;2112459;28;20031;-60
2021/01/26 06:59:49;;;;;;;12.27;5.38;;;7.40;67.30;;;;;;2119799;27;20045;-60
2021/01/26 07:01:42;;;;;;;10.00;4.90;;;7.40;67.40;;;;;;2111792;28;20031;-60
2021/01/26 07:03:06;;;;;;;8.43;5.30;;;7.40;67.30;;;;;;2090080;27;20088;-60
2021/01/26 07:04:43;;;;;;;6.63;5.30;;;7.40;67.40;;;;;;2113396;27;20035;-59
2021/01/26 07:06:37;;;;;;;10.27;5.40;;;7.40;67.40;;;;;;2111064;28;20023;-59
2021/01/26 07:08:22;;;;;;;6.53;4.60;;;7.40;68.10;;;;;;2113800;28;20058;-59
2021/01/26 07:10:07;;;;;;;7.25;4.57;;;7.40;67.90;;;;;;2113312;27;20023;-61
2021/01/26 07:11:55;;;;;;;7.70;5.00;;;7.40;68.00;;;;;;2109782;28;20126;-61
2021/01/26 07:13:44;;;;;;;9.15;4.70;;;7.40;68.10;;;;;;2112795;28;20097;-59
2021/01/26 07:15:05;;;;;;;13.25;5.57;;;7.40;68.10;;;;;;2109985;28;20031;-61
2021/01/26 07:16:43;;;;;;;13.48;5.82;;;7.40;67.70;;;;;;2114401;28;20044;-61
2021/01/26 07:18:29;;;;;;;11.43;5.00;;;7.40;68.00;;;;;;2106711;28;20032;-58
2021/01/26 07:20:00;;;;;;;10.30;4.88;;;7.40;68.00;;;;;;2113694;28;20103;-58
2021/01/26 07:21:35;;;;;;;9.40;5.55;;;7.40;67.90;;;;;;2107813;28;20276;-59
2021/01/26 07:23:24;;;;;;;9.98;5.10;;;7.40;68.00;;;;;;2114471;28;20359;-59
2021/01/26 07:25:20;;;;;;;6.68;4.78;;;7.40;68.90;;;;;;2109722;28;20023;-59
2021/01/26 07:27:25;;;;;;;9.27;5.90;;;7.40;68.00;;;;;;2108024;28;20040;-59
2021/01/26 07:29:03;;;;;;;10.75;4.70;;;7.40;68.70;;;;;;2117125;27;20155;-59
2021/01/26 07:30:26;;;;;;;8.13;4.70;;;7.40;67.70;;;;;;2105482;28;20031;-59
2021/01/26 07:32:25;;;;;;;7.90;4.80;;;7.40;67.60;;;;;;2109529;27;20028;-59
2021/01/26 07:33:57;;;;;;;13.23;5.97;;;7.40;68.10;;;;;;2090736;28;20112;-59
2021/01/26 07:35:31;;;;;;;11.90;5.65;;;7.40;67.60;;;;;;2106698;28;20404;-59
2021/01/26 07:36:59;;;;;;;8.95;4.80;;;7.40;67.80;;;;;;2108964;28;20029;-59
2021/01/26 07:38:40;;;;;;;10.95;5.22;;;7.40;67.70;;;;;;2111211;27;20051;-59
2021/01/26 07:40:26;;;;;;;11.00;5.18;;;7.40;67.90;;;;;;2112892;28;20051;-59
2021/01/26 07:42:10;;;;;;;10.45;5.35;;;7.40;67.90;;;;;;2112487;28;20480;-59
2021/01/26 07:43:56;;;;;;;9.57;4.68;;;7.40;67.80;;;;;;2114176;27;20119;-58
2021/01/26 07:45:37;;;;;;;10.20;5.70;;;7.40;67.90;;;;;;2105076;28;20103;-61
2021/01/26 07:47:22;;;;;;;9.57;5.00;;;7.40;67.90;;;;;;2111820;27;20603;-58
2021/01/26 07:49:06;;;;;;;14.07;5.30;;;7.40;67.90;;;;;;2111279;28;20053;-61
2021/01/26 07:50:35;;;;;;;7.07;4.78;;;7.40;67.90;;;;;;2112631;27;20480;-58
2021/01/26 07:52:00;;;;;;;10.25;5.03;;;7.40;67.90;;;;;;2115237;27;20045;-62
2021/01/26 07:53:33;;;;;;;9.82;4.97;;;7.40;67.90;;;;;;2116012;27;20031;-60